sensor_id;sensor_type;location;lat;lon;timestamp;P1;durP1;ratioP1;P2;durP2;ratioP2
79204;SDS011;68632;47.512;19.104;2023-04-27T00:00:59;8.18;;;5.53;;
79204;SDS011;68632;47.512;19.104;2023-04-27T00:02:01;7.72;;;5.22;;
79204;SDS011;68632;47.512;19.104;2023-04-27T00:03:03;9.23;;;4.95;;
79204;SDS011;68632;47.512;19.104;2023-04-27T00:04:07;6.93;;;5.35;;
79204;SDS011;68632;47.512;19.104;2023-04-27T00:05:09;10.63;;;5.53;;
79204;SDS011;68632;47.512;19.104;2023-04-27T00:06:12;10.02;;;4.97;;
79204;SDS011;68632;47.512;19.104;2023-04-27T00:07:14;8.38;;;6.13;;
79204;SDS011;68632;47.512;19.104;2023-04-27T00:08:17;8.80;;;6.10;;
79204;SDS011;68632;47.512;19.104;2023-04-27T00:09:19;8.52;;;5.80;;
79204;SDS011;68632;47.512;19.104;2023-04-27T00:10:21;9.57;;;5.40;;
79204;SDS011;68632;47.512;19.104;2023-04-27T00:11:23;10.43;;;5.82;;
79204;SDS011;68632;47.512;19.104;2023-04-27T00:12:26;7.55;;;5.07;;
79204;SDS011;68632;47.512;19.104;2023-04-27T00:13:28;7.05;;;5.60;;
79204;SDS011;68632;47.512;19.104;2023-04-27T00:14:30;7.63;;;6.00;;
79204;SDS011;68632;47.512;19.104;2023-04-27T00:15:32;6.97;;;4.85;;
79204;SDS011;68632;47.512;19.104;2023-04-27T00:16:34;8.55;;;5.00;;
79204;SDS011;68632;47.512;19.104;2023-04-27T00:17:36;8.35;;;5.68;;
79204;SDS011;68632;47.512;19.104;2023-04-27T00:18:39;6.45;;;4.80;;
79204;SDS011;68632;47.512;19.104;2023-04-27T00:19:41;7.55;;;4.90;;
79204;SDS011;68632;47.512;19.104;2023-04-27T00:20:43;6.93;;;5.63;;
79204;SDS011;68632;47.512;19.104;2023-04-27T00:21:45;7.03;;;4.80;;
79204;SDS011;68632;47.512;19.104;2023-04-27T00:22:47;6.30;;;4.32;;
79204;SDS011;68632;47.512;19.104;2023-04-27T00:23:50;5.55;;;4.40;;
79204;SDS011;68632;47.512;19.104;2023-04-27T00:24:52;5.40;;;4.10;;
79204;SDS011;68632;47.512;19.104;2023-04-27T00:25:54;7.40;;;4.07;;
79204;SDS011;68632;47.512;19.104;2023-04-27T00:26:56;5.55;;;4.30;;
79204;SDS011;68632;47.512;19.104;2023-04-27T00:27:58;8.65;;;5.32;;
79204;SDS011;68632;47.512;19.104;2023-04-27T00:29:00;6.72;;;3.85;;
79204;SDS011;68632;47.512;19.104;2023-04-27T00:30:03;4.65;;;3.70;;
79204;SDS011;68632;47.512;19.104;2023-04-27T00:31:05;8.23;;;4.82;;
79204;SDS011;68632;47.512;19.104;2023-04-27T00:32:10;7.97;;;4.50;;
79204;SDS011;68632;47.512;19.104;2023-04-27T00:33:13;8.23;;;4.55;;
79204;SDS011;68632;47.512;19.104;2023-04-27T00:34:15;5.03;;;3.92;;
79204;SDS011;68632;47.512;19.104;2023-04-27T00:35:17;6.80;;;4.30;;
79204;SDS011;68632;47.512;19.104;2023-04-27T00:36:19;5.85;;;4.03;;
79204;SDS011;68632;47.512;19.104;2023-04-27T00:37:21;10.70;;;3.72;;
79204;SDS011;68632;47.512;19.104;2023-04-27T00:38:24;7.18;;;3.83;;
79204;SDS011;68632;47.512;19.104;2023-04-27T00:39:26;6.80;;;4.00;;
79204;SDS011;68632;47.512;19.104;2023-04-27T00:40:28;5.38;;;3.85;;
79204;SDS011;68632;47.512;19.104;2023-04-27T00:41:30;6.03;;;4.57;;
79204;SDS011;68632;47.512;19.104;2023-04-27T00:42:33;5.18;;;4.05;;
79204;SDS011;68632;47.512;19.104;2023-04-27T00:43:43;5.47;;;4.05;;
79204;SDS011;68632;47.512;19.104;2023-04-27T00:44:46;5.43;;;3.28;;
79204;SDS011;68632;47.512;19.104;2023-04-27T00:45:48;5.00;;;3.90;;
79204;SDS011;68632;47.512;19.104;2023-04-27T00:46:51;7.45;;;4.20;;
79204;SDS011;68632;47.512;19.104;2023-04-27T00:47:54;6.38;;;3.85;;
79204;SDS011;68632;47.512;19.104;2023-04-27T00:48:56;6.57;;;3.92;;
79204;SDS011;68632;47.512;19.104;2023-04-27T00:49:58;5.63;;;4.15;;
79204;SDS011;68632;47.512;19.104;2023-04-27T00:51:01;6.70;;;3.95;;
79204;SDS011;68632;47.512;19.104;2023-04-27T00:52:03;5.15;;;3.58;;
79204;SDS011;68632;47.512;19.104;2023-04-27T00:53:05;6.15;;;3.25;;
79204;SDS011;68632;47.512;19.104;2023-04-27T00:54:08;6.05;;;4.07;;
79204;SDS011;68632;47.512;19.104;2023-04-27T00:55:11;6.20;;;3.97;;
79204;SDS011;68632;47.512;19.104;2023-04-27T00:56:13;5.55;;;3.63;;
79204;SDS011;68632;47.512;19.104;2023-04-27T00:57:16;7.55;;;4.10;;
79204;SDS011;68632;47.512;19.104;2023-04-27T00:58:18;7.00;;;4.00;;
79204;SDS011;68632;47.512;19.104;2023-04-27T00:59:20;6.43;;;4.18;;
79204;SDS011;68632;47.512;19.104;2023-04-27T01:00:22;5.88;;;4.07;;
79204;SDS011;68632;47.512;19.104;2023-04-27T01:01:24;6.95;;;4.10;;
79204;SDS011;68632;47.512;19.104;2023-04-27T01:02:28;7.22;;;4.43;;
79204;SDS011;68632;47.512;19.104;2023-04-27T01:03:31;6.97;;;4.00;;
79204;SDS011;68632;47.512;19.104;2023-04-27T01:04:33;7.72;;;4.20;;
79204;SDS011;68632;47.512;19.104;2023-04-27T01:05:37;7.18;;;3.90;;
79204;SDS011;68632;47.512;19.104;2023-04-27T01:06:40;5.93;;;4.00;;
79204;SDS011;68632;47.512;19.104;2023-04-27T01:07:42;5.97;;;3.90;;
79204;SDS011;68632;47.512;19.104;2023-04-27T01:08:44;9.18;;;4.20;;
79204;SDS011;68632;47.512;19.104;2023-04-27T01:09:47;7.38;;;4.70;;
79204;SDS011;68632;47.512;19.104;2023-04-27T01:10:49;6.50;;;4.10;;
79204;SDS011;68632;47.512;19.104;2023-04-27T01:11:52;5.85;;;4.43;;
79204;SDS011;68632;47.512;19.104;2023-04-27T01:12:54;7.30;;;4.20;;
79204;SDS011;68632;47.512;19.104;2023-04-27T01:13:56;6.00;;;3.90;;
79204;SDS011;68632;47.512;19.104;2023-04-27T01:14:58;5.68;;;4.35;;
79204;SDS011;68632;47.512;19.104;2023-04-27T01:16:00;6.63;;;4.75;;
79204;SDS011;68632;47.512;19.104;2023-04-27T01:17:03;7.32;;;4.50;;
79204;SDS011;68632;47.512;19.104;2023-04-27T01:18:05;6.38;;;4.20;;
79204;SDS011;68632;47.512;19.104;2023-04-27T01:19:07;6.30;;;4.75;;
79204;SDS011;68632;47.512;19.104;2023-04-27T01:20:10;5.28;;;4.40;;
79204;SDS011;68632;47.512;19.104;2023-04-27T01:21:12;6.68;;;4.80;;
79204;SDS011;68632;47.512;19.104;2023-04-27T01:22:14;8.52;;;5.00;;
79204;SDS011;68632;47.512;19.104;2023-04-27T01:23:17;9.20;;;5.63;;
79204;SDS011;68632;47.512;19.104;2023-04-27T01:24:19;8.52;;;5.10;;
79204;SDS011;68632;47.512;19.104;2023-04-27T01:25:21;8.82;;;4.60;;
79204;SDS011;68632;47.512;19.104;2023-04-27T01:26:23;7.72;;;5.95;;
79204;SDS011;68632;47.512;19.104;2023-04-27T01:27:25;7.53;;;5.43;;
79204;SDS011;68632;47.512;19.104;2023-04-27T01:28:27;7.68;;;5.13;;
79204;SDS011;68632;47.512;19.104;2023-04-27T01:29:30;9.10;;;5.13;;
79204;SDS011;68632;47.512;19.104;2023-04-27T01:30:32;8.95;;;5.72;;
79204;SDS011;68632;47.512;19.104;2023-04-27T01:31:34;9.07;;;5.28;;
79204;SDS011;68632;47.512;19.104;2023-04-27T01:32:37;8.32;;;4.50;;
79204;SDS011;68632;47.512;19.104;2023-04-27T01:33:40;9.30;;;6.45;;
79204;SDS011;68632;47.512;19.104;2023-04-27T01:34:42;9.85;;;6.05;;
79204;SDS011;68632;47.512;19.104;2023-04-27T01:35:44;8.68;;;6.38;;
79204;SDS011;68632;47.512;19.104;2023-04-27T01:36:47;10.27;;;5.72;;
79204;SDS011;68632;47.512;19.104;2023-04-27T01:37:49;8.90;;;5.88;;
79204;SDS011;68632;47.512;19.104;2023-04-27T01:38:52;9.63;;;6.68;;
79204;SDS011;68632;47.512;19.104;2023-04-27T01:39:54;13.00;;;6.30;;
79204;SDS011;68632;47.512;19.104;2023-04-27T01:40:56;10.77;;;5.95;;
79204;SDS011;68632;47.512;19.104;2023-04-27T01:42:02;8.57;;;6.07;;
79204;SDS011;68632;47.512;19.104;2023-04-27T01:43:05;7.00;;;5.57;;
79204;SDS011;68632;47.512;19.104;2023-04-27T01:44:07;7.00;;;5.13;;
79204;SDS011;68632;47.512;19.104;2023-04-27T01:45:09;12.60;;;6.35;;
79204;SDS011;68632;47.512;19.104;2023-04-27T01:46:12;6.05;;;5.18;;
79204;SDS011;68632;47.512;19.104;2023-04-27T01:47:15;7.20;;;5.18;;
79204;SDS011;68632;47.512;19.104;2023-04-27T01:48:20;7.65;;;5.60;;
79204;SDS011;68632;47.512;19.104;2023-04-27T01:49:23;10.00;;;6.53;;
79204;SDS011;68632;47.512;19.104;2023-04-27T01:50:25;9.32;;;5.97;;
79204;SDS011;68632;47.512;19.104;2023-04-27T01:51:28;8.48;;;6.38;;
79204;SDS011;68632;47.512;19.104;2023-04-27T01:52:30;9.02;;;5.88;;
79204;SDS011;68632;47.512;19.104;2023-04-27T01:53:32;9.50;;;6.22;;
79204;SDS011;68632;47.512;19.104;2023-04-27T01:54:35;11.40;;;5.82;;
79204;SDS011;68632;47.512;19.104;2023-04-27T01:55:37;10.30;;;5.95;;
79204;SDS011;68632;47.512;19.104;2023-04-27T01:56:39;8.65;;;6.53;;
79204;SDS011;68632;47.512;19.104;2023-04-27T01:57:41;8.93;;;5.53;;
79204;SDS011;68632;47.512;19.104;2023-04-27T01:58:43;14.98;;;6.50;;
79204;SDS011;68632;47.512;19.104;2023-04-27T01:59:45;10.55;;;6.43;;
79204;SDS011;68632;47.512;19.104;2023-04-27T02:00:48;14.73;;;8.27;;
79204;SDS011;68632;47.512;19.104;2023-04-27T02:01:50;11.85;;;6.65;;
79204;SDS011;68632;47.512;19.104;2023-04-27T02:02:52;9.25;;;6.82;;
79204;SDS011;68632;47.512;19.104;2023-04-27T02:03:55;13.90;;;8.00;;
79204;SDS011;68632;47.512;19.104;2023-04-27T02:04:57;12.60;;;8.73;;
79204;SDS011;68632;47.512;19.104;2023-04-27T02:05:59;16.65;;;8.43;;
79204;SDS011;68632;47.512;19.104;2023-04-27T02:07:02;14.43;;;7.28;;
79204;SDS011;68632;47.512;19.104;2023-04-27T02:08:04;12.55;;;8.40;;
79204;SDS011;68632;47.512;19.104;2023-04-27T02:09:07;12.50;;;8.00;;
79204;SDS011;68632;47.512;19.104;2023-04-27T02:10:09;13.23;;;7.57;;
79204;SDS011;68632;47.512;19.104;2023-04-27T02:11:11;13.85;;;7.95;;
79204;SDS011;68632;47.512;19.104;2023-04-27T02:12:13;13.40;;;7.47;;
79204;SDS011;68632;47.512;19.104;2023-04-27T02:13:15;9.95;;;7.03;;
79204;SDS011;68632;47.512;19.104;2023-04-27T02:14:17;15.10;;;7.22;;
79204;SDS011;68632;47.512;19.104;2023-04-27T02:15:20;10.52;;;6.53;;
79204;SDS011;68632;47.512;19.104;2023-04-27T02:16:22;12.77;;;7.05;;
79204;SDS011;68632;47.512;19.104;2023-04-27T02:17:24;9.07;;;6.97;;
79204;SDS011;68632;47.512;19.104;2023-04-27T02:18:26;10.07;;;6.50;;
79204;SDS011;68632;47.512;19.104;2023-04-27T02:19:29;10.15;;;6.53;;
79204;SDS011;68632;47.512;19.104;2023-04-27T02:20:31;8.65;;;6.53;;
79204;SDS011;68632;47.512;19.104;2023-04-27T02:21:34;7.45;;;6.60;;
79204;SDS011;68632;47.512;19.104;2023-04-27T02:22:43;9.85;;;6.22;;
79204;SDS011;68632;47.512;19.104;2023-04-27T02:23:45;9.18;;;6.55;;
79204;SDS011;68632;47.512;19.104;2023-04-27T02:24:47;11.93;;;7.13;;
79204;SDS011;68632;47.512;19.104;2023-04-27T02:25:49;9.13;;;6.45;;
79204;SDS011;68632;47.512;19.104;2023-04-27T02:26:52;10.23;;;6.28;;
79204;SDS011;68632;47.512;19.104;2023-04-27T02:27:54;9.35;;;5.80;;
79204;SDS011;68632;47.512;19.104;2023-04-27T02:28:57;11.07;;;6.93;;
79204;SDS011;68632;47.512;19.104;2023-04-27T02:30:02;9.00;;;6.80;;
79204;SDS011;68632;47.512;19.104;2023-04-27T02:31:06;7.80;;;6.25;;
79204;SDS011;68632;47.512;19.104;2023-04-27T02:32:08;9.80;;;6.05;;
79204;SDS011;68632;47.512;19.104;2023-04-27T02:33:10;13.10;;;6.25;;
79204;SDS011;68632;47.512;19.104;2023-04-27T02:34:12;8.27;;;5.07;;
79204;SDS011;68632;47.512;19.104;2023-04-27T02:35:15;9.43;;;5.78;;
79204;SDS011;68632;47.512;19.104;2023-04-27T02:36:17;7.55;;;5.82;;
79204;SDS011;68632;47.512;19.104;2023-04-27T02:37:19;9.27;;;5.90;;
79204;SDS011;68632;47.512;19.104;2023-04-27T02:38:21;7.35;;;5.88;;
79204;SDS011;68632;47.512;19.104;2023-04-27T02:39:24;11.60;;;7.00;;
79204;SDS011;68632;47.512;19.104;2023-04-27T02:40:26;7.68;;;6.10;;
79204;SDS011;68632;47.512;19.104;2023-04-27T02:41:32;12.95;;;7.95;;
79204;SDS011;68632;47.512;19.104;2023-04-27T02:42:34;8.75;;;6.13;;
79204;SDS011;68632;47.512;19.104;2023-04-27T02:43:36;9.30;;;5.78;;
79204;SDS011;68632;47.512;19.104;2023-04-27T02:44:38;8.63;;;6.07;;
79204;SDS011;68632;47.512;19.104;2023-04-27T02:45:41;8.98;;;6.18;;
79204;SDS011;68632;47.512;19.104;2023-04-27T02:46:43;9.13;;;7.30;;
79204;SDS011;68632;47.512;19.104;2023-04-27T02:47:45;11.27;;;7.00;;
79204;SDS011;68632;47.512;19.104;2023-04-27T02:48:47;10.07;;;7.18;;
79204;SDS011;68632;47.512;19.104;2023-04-27T02:49:49;10.88;;;7.35;;
79204;SDS011;68632;47.512;19.104;2023-04-27T02:50:52;9.70;;;6.45;;
79204;SDS011;68632;47.512;19.104;2023-04-27T02:51:55;12.93;;;7.00;;
79204;SDS011;68632;47.512;19.104;2023-04-27T02:52:57;10.32;;;7.78;;
79204;SDS011;68632;47.512;19.104;2023-04-27T02:54:00;10.00;;;6.82;;
79204;SDS011;68632;47.512;19.104;2023-04-27T02:55:03;8.70;;;6.95;;
79204;SDS011;68632;47.512;19.104;2023-04-27T02:56:05;10.18;;;7.38;;
79204;SDS011;68632;47.512;19.104;2023-04-27T02:57:07;10.65;;;7.85;;
79204;SDS011;68632;47.512;19.104;2023-04-27T02:58:09;9.63;;;7.82;;
79204;SDS011;68632;47.512;19.104;2023-04-27T02:59:11;10.65;;;7.75;;
79204;SDS011;68632;47.512;19.104;2023-04-27T03:00:14;13.63;;;7.68;;
79204;SDS011;68632;47.512;19.104;2023-04-27T03:01:16;10.15;;;7.70;;
79204;SDS011;68632;47.512;19.104;2023-04-27T03:02:18;12.57;;;8.40;;
79204;SDS011;68632;47.512;19.104;2023-04-27T03:03:21;11.60;;;7.32;;
79204;SDS011;68632;47.512;19.104;2023-04-27T03:04:24;10.50;;;8.18;;
79204;SDS011;68632;47.512;19.104;2023-04-27T03:05:26;15.13;;;8.23;;
79204;SDS011;68632;47.512;19.104;2023-04-27T03:06:29;10.43;;;8.05;;
79204;SDS011;68632;47.512;19.104;2023-04-27T03:07:31;12.32;;;8.43;;
79204;SDS011;68632;47.512;19.104;2023-04-27T03:08:34;11.13;;;7.93;;
79204;SDS011;68632;47.512;19.104;2023-04-27T03:09:36;11.10;;;7.88;;
79204;SDS011;68632;47.512;19.104;2023-04-27T03:10:38;13.85;;;9.13;;
79204;SDS011;68632;47.512;19.104;2023-04-27T03:11:40;11.27;;;7.53;;
79204;SDS011;68632;47.512;19.104;2023-04-27T03:12:43;12.02;;;7.65;;
79204;SDS011;68632;47.512;19.104;2023-04-27T03:13:45;12.43;;;8.00;;
79204;SDS011;68632;47.512;19.104;2023-04-27T03:14:47;11.13;;;7.68;;
79204;SDS011;68632;47.512;19.104;2023-04-27T03:15:49;12.50;;;8.43;;
79204;SDS011;68632;47.512;19.104;2023-04-27T03:16:51;10.23;;;7.63;;
79204;SDS011;68632;47.512;19.104;2023-04-27T03:17:55;10.50;;;8.68;;
79204;SDS011;68632;47.512;19.104;2023-04-27T03:18:57;9.68;;;7.53;;
79204;SDS011;68632;47.512;19.104;2023-04-27T03:19:59;12.60;;;8.55;;
79204;SDS011;68632;47.512;19.104;2023-04-27T03:21:08;10.05;;;8.02;;
79204;SDS011;68632;47.512;19.104;2023-04-27T03:22:11;11.02;;;7.05;;
79204;SDS011;68632;47.512;19.104;2023-04-27T03:23:13;11.13;;;8.15;;
79204;SDS011;68632;47.512;19.104;2023-04-27T03:24:15;12.05;;;8.45;;
79204;SDS011;68632;47.512;19.104;2023-04-27T03:25:17;9.77;;;8.02;;
79204;SDS011;68632;47.512;19.104;2023-04-27T03:26:20;10.23;;;8.32;;
79204;SDS011;68632;47.512;19.104;2023-04-27T03:27:22;16.27;;;8.77;;
79204;SDS011;68632;47.512;19.104;2023-04-27T03:28:24;9.38;;;7.65;;
79204;SDS011;68632;47.512;19.104;2023-04-27T03:29:26;11.27;;;8.40;;
79204;SDS011;68632;47.512;19.104;2023-04-27T03:30:28;12.77;;;8.52;;
79204;SDS011;68632;47.512;19.104;2023-04-27T03:31:30;12.85;;;7.90;;
79204;SDS011;68632;47.512;19.104;2023-04-27T03:32:32;15.40;;;9.23;;
79204;SDS011;68632;47.512;19.104;2023-04-27T03:33:35;12.65;;;8.98;;
79204;SDS011;68632;47.512;19.104;2023-04-27T03:34:37;10.90;;;8.60;;
79204;SDS011;68632;47.512;19.104;2023-04-27T03:35:39;12.35;;;9.60;;
79204;SDS011;68632;47.512;19.104;2023-04-27T03:36:41;10.20;;;7.65;;
79204;SDS011;68632;47.512;19.104;2023-04-27T03:37:44;12.93;;;9.20;;
79204;SDS011;68632;47.512;19.104;2023-04-27T03:38:46;13.73;;;8.25;;
79204;SDS011;68632;47.512;19.104;2023-04-27T03:39:49;11.73;;;8.32;;
79204;SDS011;68632;47.512;19.104;2023-04-27T03:40:51;10.85;;;8.30;;
79204;SDS011;68632;47.512;19.104;2023-04-27T03:41:53;13.45;;;8.63;;
79204;SDS011;68632;47.512;19.104;2023-04-27T03:42:55;14.13;;;9.05;;
79204;SDS011;68632;47.512;19.104;2023-04-27T03:43:59;10.73;;;8.38;;
79204;SDS011;68632;47.512;19.104;2023-04-27T03:45:02;13.70;;;9.75;;
79204;SDS011;68632;47.512;19.104;2023-04-27T03:46:04;12.23;;;10.60;;
79204;SDS011;68632;47.512;19.104;2023-04-27T03:47:07;12.38;;;9.05;;
79204;SDS011;68632;47.512;19.104;2023-04-27T03:48:09;12.25;;;9.02;;
79204;SDS011;68632;47.512;19.104;2023-04-27T03:49:11;16.52;;;9.82;;
79204;SDS011;68632;47.512;19.104;2023-04-27T03:50:14;13.25;;;8.50;;
79204;SDS011;68632;47.512;19.104;2023-04-27T03:51:17;12.05;;;8.57;;
79204;SDS011;68632;47.512;19.104;2023-04-27T03:52:19;13.77;;;8.95;;
79204;SDS011;68632;47.512;19.104;2023-04-27T03:53:22;11.48;;;8.90;;
79204;SDS011;68632;47.512;19.104;2023-04-27T03:54:24;11.80;;;8.48;;
79204;SDS011;68632;47.512;19.104;2023-04-27T03:55:26;10.73;;;8.65;;
79204;SDS011;68632;47.512;19.104;2023-04-27T03:56:28;13.07;;;9.02;;
79204;SDS011;68632;47.512;19.104;2023-04-27T03:57:30;12.98;;;8.52;;
79204;SDS011;68632;47.512;19.104;2023-04-27T03:58:32;15.40;;;9.02;;
79204;SDS011;68632;47.512;19.104;2023-04-27T03:59:34;13.43;;;9.43;;
79204;SDS011;68632;47.512;19.104;2023-04-27T04:00:36;14.40;;;9.88;;
79204;SDS011;68632;47.512;19.104;2023-04-27T04:01:39;14.38;;;8.15;;
79204;SDS011;68632;47.512;19.104;2023-04-27T04:02:42;10.43;;;8.48;;
79204;SDS011;68632;47.512;19.104;2023-04-27T04:03:44;12.07;;;8.45;;
79204;SDS011;68632;47.512;19.104;2023-04-27T04:04:48;12.63;;;8.10;;
79204;SDS011;68632;47.512;19.104;2023-04-27T04:05:51;13.13;;;7.80;;
79204;SDS011;68632;47.512;19.104;2023-04-27T04:06:53;10.75;;;8.40;;
79204;SDS011;68632;47.512;19.104;2023-04-27T04:07:55;11.27;;;8.55;;
79204;SDS011;68632;47.512;19.104;2023-04-27T04:08:58;13.85;;;8.15;;
79204;SDS011;68632;47.512;19.104;2023-04-27T04:10:00;13.25;;;9.95;;
79204;SDS011;68632;47.512;19.104;2023-04-27T04:11:03;10.63;;;7.93;;
79204;SDS011;68632;47.512;19.104;2023-04-27T04:12:05;15.13;;;8.70;;
79204;SDS011;68632;47.512;19.104;2023-04-27T04:13:07;14.07;;;8.70;;
79204;SDS011;68632;47.512;19.104;2023-04-27T04:14:10;11.98;;;7.57;;
79204;SDS011;68632;47.512;19.104;2023-04-27T04:15:12;13.88;;;8.27;;
79204;SDS011;68632;47.512;19.104;2023-04-27T04:16:14;10.95;;;7.72;;
79204;SDS011;68632;47.512;19.104;2023-04-27T04:17:16;12.13;;;8.93;;
79204;SDS011;68632;47.512;19.104;2023-04-27T04:18:19;13.80;;;8.05;;
79204;SDS011;68632;47.512;19.104;2023-04-27T04:19:21;10.82;;;8.13;;
79204;SDS011;68632;47.512;19.104;2023-04-27T04:20:23;12.00;;;7.93;;
79204;SDS011;68632;47.512;19.104;2023-04-27T04:21:25;12.73;;;8.63;;
79204;SDS011;68632;47.512;19.104;2023-04-27T04:22:27;12.48;;;7.70;;
79204;SDS011;68632;47.512;19.104;2023-04-27T04:23:29;12.43;;;8.13;;
79204;SDS011;68632;47.512;19.104;2023-04-27T04:24:33;10.60;;;8.95;;
79204;SDS011;68632;47.512;19.104;2023-04-27T04:25:36;12.95;;;7.72;;
79204;SDS011;68632;47.512;19.104;2023-04-27T04:26:41;12.65;;;8.05;;
79204;SDS011;68632;47.512;19.104;2023-04-27T04:27:43;14.30;;;8.90;;
79204;SDS011;68632;47.512;19.104;2023-04-27T04:28:45;12.93;;;8.10;;
79204;SDS011;68632;47.512;19.104;2023-04-27T04:29:47;16.17;;;9.70;;
79204;SDS011;68632;47.512;19.104;2023-04-27T04:30:49;14.60;;;8.60;;
79204;SDS011;68632;47.512;19.104;2023-04-27T04:31:52;12.77;;;9.57;;
79204;SDS011;68632;47.512;19.104;2023-04-27T04:32:54;12.55;;;8.60;;
79204;SDS011;68632;47.512;19.104;2023-04-27T04:33:56;11.88;;;8.25;;
79204;SDS011;68632;47.512;19.104;2023-04-27T04:34:58;11.95;;;8.27;;
79204;SDS011;68632;47.512;19.104;2023-04-27T04:36:02;12.95;;;9.40;;
79204;SDS011;68632;47.512;19.104;2023-04-27T04:37:05;11.55;;;9.55;;
79204;SDS011;68632;47.512;19.104;2023-04-27T04:38:07;12.13;;;9.13;;
79204;SDS011;68632;47.512;19.104;2023-04-27T04:39:10;12.90;;;9.45;;
79204;SDS011;68632;47.512;19.104;2023-04-27T04:40:13;10.55;;;8.75;;
79204;SDS011;68632;47.512;19.104;2023-04-27T04:41:15;17.60;;;11.57;;
79204;SDS011;68632;47.512;19.104;2023-04-27T04:42:18;14.10;;;9.00;;
79204;SDS011;68632;47.512;19.104;2023-04-27T04:43:20;16.70;;;10.13;;
79204;SDS011;68632;47.512;19.104;2023-04-27T04:44:22;11.77;;;8.57;;
79204;SDS011;68632;47.512;19.104;2023-04-27T04:45:25;9.43;;;8.40;;
79204;SDS011;68632;47.512;19.104;2023-04-27T04:46:27;13.50;;;8.10;;
79204;SDS011;68632;47.512;19.104;2023-04-27T04:47:31;15.32;;;9.15;;
79204;SDS011;68632;47.512;19.104;2023-04-27T04:48:34;10.30;;;9.02;;
79204;SDS011;68632;47.512;19.104;2023-04-27T04:49:37;13.07;;;8.45;;
79204;SDS011;68632;47.512;19.104;2023-04-27T04:50:39;12.30;;;9.02;;
79204;SDS011;68632;47.512;19.104;2023-04-27T04:51:43;13.13;;;9.32;;
79204;SDS011;68632;47.512;19.104;2023-04-27T04:52:45;10.38;;;9.27;;
79204;SDS011;68632;47.512;19.104;2023-04-27T04:53:48;11.80;;;8.35;;
79204;SDS011;68632;47.512;19.104;2023-04-27T04:54:51;13.98;;;8.65;;
79204;SDS011;68632;47.512;19.104;2023-04-27T04:55:53;13.88;;;8.93;;
79204;SDS011;68632;47.512;19.104;2023-04-27T04:56:56;11.63;;;8.55;;
79204;SDS011;68632;47.512;19.104;2023-04-27T04:57:59;13.05;;;8.93;;
79204;SDS011;68632;47.512;19.104;2023-04-27T04:59:02;14.13;;;9.30;;
79204;SDS011;68632;47.512;19.104;2023-04-27T05:00:04;14.38;;;8.38;;
79204;SDS011;68632;47.512;19.104;2023-04-27T05:01:11;13.95;;;9.30;;
79204;SDS011;68632;47.512;19.104;2023-04-27T05:02:14;14.32;;;9.20;;
79204;SDS011;68632;47.512;19.104;2023-04-27T05:03:16;10.40;;;8.13;;
79204;SDS011;68632;47.512;19.104;2023-04-27T05:04:18;10.07;;;8.50;;
79204;SDS011;68632;47.512;19.104;2023-04-27T05:05:21;10.18;;;8.50;;
79204;SDS011;68632;47.512;19.104;2023-04-27T05:06:23;9.77;;;8.18;;
79204;SDS011;68632;47.512;19.104;2023-04-27T05:07:25;12.15;;;8.98;;
79204;SDS011;68632;47.512;19.104;2023-04-27T05:08:27;11.73;;;7.18;;
79204;SDS011;68632;47.512;19.104;2023-04-27T05:09:29;20.65;;;9.52;;
79204;SDS011;68632;47.512;19.104;2023-04-27T05:10:31;11.10;;;8.35;;
79204;SDS011;68632;47.512;19.104;2023-04-27T05:11:34;12.75;;;8.55;;
79204;SDS011;68632;47.512;19.104;2023-04-27T05:12:36;15.13;;;9.38;;
79204;SDS011;68632;47.512;19.104;2023-04-27T05:13:38;9.98;;;8.23;;
79204;SDS011;68632;47.512;19.104;2023-04-27T05:14:41;10.65;;;8.60;;
79204;SDS011;68632;47.512;19.104;2023-04-27T05:15:44;11.55;;;8.30;;
79204;SDS011;68632;47.512;19.104;2023-04-27T05:16:46;13.00;;;8.57;;
79204;SDS011;68632;47.512;19.104;2023-04-27T05:17:50;14.00;;;8.70;;
79204;SDS011;68632;47.512;19.104;2023-04-27T05:18:52;13.60;;;8.27;;
79204;SDS011;68632;47.512;19.104;2023-04-27T05:19:55;14.77;;;8.35;;
79204;SDS011;68632;47.512;19.104;2023-04-27T05:20:58;13.25;;;8.88;;
79204;SDS011;68632;47.512;19.104;2023-04-27T05:22:00;10.77;;;7.60;;
79204;SDS011;68632;47.512;19.104;2023-04-27T05:23:02;13.15;;;8.77;;
79204;SDS011;68632;47.512;19.104;2023-04-27T05:24:05;14.35;;;8.10;;
79204;SDS011;68632;47.512;19.104;2023-04-27T05:25:08;12.43;;;8.63;;
79204;SDS011;68632;47.512;19.104;2023-04-27T05:26:14;13.65;;;8.68;;
79204;SDS011;68632;47.512;19.104;2023-04-27T05:27:16;16.48;;;9.25;;
79204;SDS011;68632;47.512;19.104;2023-04-27T05:28:18;11.60;;;8.35;;
79204;SDS011;68632;47.512;19.104;2023-04-27T05:29:21;13.35;;;8.13;;
79204;SDS011;68632;47.512;19.104;2023-04-27T05:30:23;13.98;;;8.95;;
79204;SDS011;68632;47.512;19.104;2023-04-27T05:31:26;13.43;;;8.32;;
79204;SDS011;68632;47.512;19.104;2023-04-27T05:32:28;11.93;;;8.40;;
79204;SDS011;68632;47.512;19.104;2023-04-27T05:33:31;12.70;;;8.52;;
79204;SDS011;68632;47.512;19.104;2023-04-27T05:34:33;12.70;;;8.10;;
79204;SDS011;68632;47.512;19.104;2023-04-27T05:35:35;14.60;;;9.50;;
79204;SDS011;68632;47.512;19.104;2023-04-27T05:36:37;11.50;;;8.10;;
79204;SDS011;68632;47.512;19.104;2023-04-27T05:37:40;13.85;;;8.38;;
79204;SDS011;68632;47.512;19.104;2023-04-27T05:38:42;13.05;;;9.23;;
79204;SDS011;68632;47.512;19.104;2023-04-27T05:39:48;10.93;;;9.02;;
79204;SDS011;68632;47.512;19.104;2023-04-27T05:40:57;11.73;;;7.97;;
79204;SDS011;68632;47.512;19.104;2023-04-27T05:42:00;9.95;;;8.57;;
79204;SDS011;68632;47.512;19.104;2023-04-27T05:43:03;12.68;;;8.40;;
79204;SDS011;68632;47.512;19.104;2023-04-27T05:44:06;10.00;;;8.80;;
79204;SDS011;68632;47.512;19.104;2023-04-27T05:45:08;12.75;;;9.40;;
79204;SDS011;68632;47.512;19.104;2023-04-27T05:46:14;13.43;;;8.98;;
79204;SDS011;68632;47.512;19.104;2023-04-27T05:47:17;11.50;;;9.27;;
79204;SDS011;68632;47.512;19.104;2023-04-27T05:48:19;14.77;;;10.35;;
79204;SDS011;68632;47.512;19.104;2023-04-27T05:49:22;14.27;;;9.82;;
79204;SDS011;68632;47.512;19.104;2023-04-27T05:50:24;15.65;;;8.85;;
79204;SDS011;68632;47.512;19.104;2023-04-27T05:51:26;14.65;;;8.75;;
79204;SDS011;68632;47.512;19.104;2023-04-27T05:52:29;11.98;;;8.77;;
79204;SDS011;68632;47.512;19.104;2023-04-27T05:53:32;11.90;;;8.80;;
79204;SDS011;68632;47.512;19.104;2023-04-27T05:54:35;15.23;;;9.15;;
79204;SDS011;68632;47.512;19.104;2023-04-27T05:55:37;11.98;;;8.38;;
79204;SDS011;68632;47.512;19.104;2023-04-27T05:56:40;14.48;;;8.63;;
79204;SDS011;68632;47.512;19.104;2023-04-27T05:57:42;12.77;;;9.15;;
79204;SDS011;68632;47.512;19.104;2023-04-27T05:58:44;13.52;;;8.93;;
79204;SDS011;68632;47.512;19.104;2023-04-27T05:59:46;13.77;;;9.23;;
79204;SDS011;68632;47.512;19.104;2023-04-27T06:00:48;14.35;;;9.10;;
79204;SDS011;68632;47.512;19.104;2023-04-27T06:01:51;10.40;;;8.88;;
79204;SDS011;68632;47.512;19.104;2023-04-27T06:02:53;15.35;;;9.48;;
79204;SDS011;68632;47.512;19.104;2023-04-27T06:03:56;12.07;;;8.85;;
79204;SDS011;68632;47.512;19.104;2023-04-27T06:05:02;14.90;;;9.68;;
79204;SDS011;68632;47.512;19.104;2023-04-27T06:06:04;14.98;;;8.30;;
79204;SDS011;68632;47.512;19.104;2023-04-27T06:07:07;10.57;;;9.48;;
79204;SDS011;68632;47.512;19.104;2023-04-27T06:08:11;13.27;;;8.98;;